Time;durP1;ratioP1;P1;durP2;ratioP2;P2;SDS_P1;SDS_P2;PMS_P1;PMS_P2;Temp;Humidity;BMP_temperature;BMP_pressure;BME280_temperature;BME280_humidity;BME280_pressure;Samples;Min_cycle;Max_cycle;Signal;HPM_P1;HPM_P2
2024/01/04 00:01:11;;;;;;;5.50;5.20;;;;;;;;;;6145679;29;20063;-96
2024/01/04 00:04:44;;;;;;;4.70;4.60;;;;;;;;;;6155898;23;20083;-96
2024/01/04 00:08:14;;;;;;;4.95;4.85;;;;;;;;;;6351698;23;20063;-96
2024/01/04 00:11:18;;;;;;;6.35;6.00;;;;;;;;;;6143877;28;20537;-95
2024/01/04 00:14:20;;;;;;;5.93;5.72;;;;;;;;;;6118160;29;20050;-95
2024/01/04 00:17:22;;;;;;;6.10;5.90;;;;;;;;;;6141187;28;20157;-94
2024/01/04 00:20:24;;;;;;;9.55;5.80;;;;;;;;;;6142968;28;20043;-93
2024/01/04 00:23:26;;;;;;;5.65;5.45;;;;;;;;;;6141859;28;20050;-94
2024/01/04 00:26:28;;;;;;;5.85;5.65;;;;;;;;;;6133299;28;20505;-93
2024/01/04 00:29:29;;;;;;;6.25;6.05;;;;;;;;;;6140908;28;20043;-91
2024/01/04 00:32:32;;;;;;;6.40;6.20;;;;;;;;;;6139034;29;20102;-92
2024/01/04 00:35:34;;;;;;;6.43;6.22;;;;;;;;;;6127750;29;20048;-91
2024/01/04 00:38:36;;;;;;;6.25;6.05;;;;;;;;;;6141810;29;20051;-92
2024/01/04 00:41:38;;;;;;;6.30;5.90;;;;;;;;;;6136413;28;20047;-91
2024/01/04 00:44:40;;;;;;;5.82;5.63;;;;;;;;;;6140950;28;20417;-91
2024/01/04 00:47:42;;;;;;;6.53;6.32;;;;;;;;;;6138739;29;20044;-92
2024/01/04 00:50:44;;;;;;;6.25;6.05;;;;;;;;;;6139926;28;20413;-92
2024/01/04 00:53:47;;;;;;;5.75;5.55;;;;;;;;;;6139343;28;20032;-91
2024/01/04 00:56:49;;;;;;;6.80;6.30;;;;;;;;;;6134776;29;20509;-91
2024/01/04 00:59:51;;;;;;;5.75;5.55;;;;;;;;;;6136101;29;20039;-93
2024/01/04 01:02:53;;;;;;;6.13;5.93;;;;;;;;;;6134561;28;20450;-92
2024/01/04 01:05:55;;;;;;;6.20;6.00;;;;;;;;;;6132718;28;20084;-92
2024/01/04 01:08:57;;;;;;;5.90;5.70;;;;;;;;;;6136323;29;20407;-92
2024/01/04 01:11:59;;;;;;;6.15;5.95;;;;;;;;;;6140587;29;20366;-92
2024/01/04 01:15:01;;;;;;;6.05;5.63;;;;;;;;;;6139686;28;20050;-92
2024/01/04 01:18:03;;;;;;;6.50;6.30;;;;;;;;;;6140956;29;20062;-92
2024/01/04 01:21:05;;;;;;;5.25;5.13;;;;;;;;;;6138396;29;20058;-92
2024/01/04 01:24:07;;;;;;;5.03;4.93;;;;;;;;;;6129493;28;20473;-92
2024/01/04 01:27:09;;;;;;;5.95;5.68;;;;;;;;;;6133632;28;20502;-93
2024/01/04 01:30:11;;;;;;;8.98;8.57;;;;;;;;;;6131591;29;20039;-91
2024/01/04 01:33:14;;;;;;;5.47;5.28;;;;;;;;;;6153642;28;20050;-91
2024/01/04 01:36:16;;;;;;;5.60;5.40;;;;;;;;;;6142000;28;20043;-92
2024/01/04 01:39:18;;;;;;;5.45;5.25;;;;;;;;;;6139922;29;20035;-90
2024/01/04 01:42:20;;;;;;;4.75;4.65;;;;;;;;;;6135554;28;20047;-91
2024/01/04 01:45:22;;;;;;;6.05;5.65;;;;;;;;;;6126169;29;20055;-91
2024/01/04 01:48:24;;;;;;;5.28;5.07;;;;;;;;;;6140227;28;20085;-91
2024/01/04 01:51:27;;;;;;;5.30;5.10;;;;;;;;;;6102177;29;20521;-92
2024/01/04 01:54:28;;;;;;;4.70;4.60;;;;;;;;;;6140330;28;20098;-92
2024/01/04 01:57:33;;;;;;;5.40;5.22;;;;;;;;;;6113230;29;20291;-91
2024/01/04 02:00:36;;;;;;;6.35;6.05;;;;;;;;;;6134253;29;20054;-92
2024/01/04 02:03:40;;;;;;;5.43;5.22;;;;;;;;;;6132185;29;20055;-92
2024/01/04 02:06:41;;;;;;;5.65;5.35;;;;;;;;;;6137265;28;20047;-93
2024/01/04 02:09:43;;;;;;;6.20;6.00;;;;;;;;;;6140010;28;20450;-92
2024/01/04 02:12:45;;;;;;;5.43;5.22;;;;;;;;;;6130801;28;20043;-93
2024/01/04 02:15:48;;;;;;;5.95;5.75;;;;;;;;;;6136731;28;20047;-93
2024/01/04 02:18:50;;;;;;;6.45;6.25;;;;;;;;;;6136912;29;20114;-93
2024/01/04 02:21:52;;;;;;;10.45;10.05;;;;;;;;;;6132745;28;20446;-94
2024/01/04 02:24:54;;;;;;;5.68;5.47;;;;;;;;;;6153604;28;20409;-95
2024/01/04 02:27:56;;;;;;;5.50;5.30;;;;;;;;;;6135834;29;20047;-92
2024/01/04 02:30:58;;;;;;;4.95;4.85;;;;;;;;;;6131886;28;20054;-93
2024/01/04 02:34:00;;;;;;;5.63;5.43;;;;;;;;;;6139644;28;20039;-93
2024/01/04 02:37:02;;;;;;;5.90;5.70;;;;;;;;;;6140350;28;20046;-94
2024/01/04 02:40:04;;;;;;;5.50;5.30;;;;;;;;;;6140025;28;20039;-94
2024/01/04 02:43:09;;;;;;;5.95;5.75;;;;;;;;;;6134833;28;20039;-92
2024/01/04 02:46:11;;;;;;;6.80;6.50;;;;;;;;;;6139458;28;20490;-93
2024/01/04 02:49:13;;;;;;;12.43;5.85;;;;;;;;;;6123971;29;20117;-95
2024/01/04 02:52:16;;;;;;;5.00;4.90;;;;;;;;;;6145482;28;20279;-92
2024/01/04 02:55:18;;;;;;;6.00;5.80;;;;;;;;;;6143141;29;20203;-94
2024/01/04 02:58:21;;;;;;;5.68;5.47;;;;;;;;;;6122937;29;20054;-93
2024/01/04 03:01:24;;;;;;;5.82;5.63;;;;;;;;;;6143960;28;20035;-94
2024/01/04 03:04:25;;;;;;;6.07;5.78;;;;;;;;;;6144340;28;20090;-93
2024/01/04 03:07:27;;;;;;;5.80;5.60;;;;;;;;;;6135813;29;20079;-95
2024/01/04 03:10:29;;;;;;;5.78;5.57;;;;;;;;;;6145555;28;20051;-93
2024/01/04 03:13:31;;;;;;;5.90;5.68;;;;;;;;;;6131063;29;20074;-91
2024/01/04 03:16:33;;;;;;;6.18;5.93;;;;;;;;;;6135640;28;20047;-92
2024/01/04 03:19:35;;;;;;;6.72;6.10;;;;;;;;;;6143187;28;20151;-93
2024/01/04 03:22:37;;;;;;;6.25;6.05;;;;;;;;;;6136848;29;20082;-92
2024/01/04 03:25:39;;;;;;;6.05;5.85;;;;;;;;;;6142949;29;20271;-93
2024/01/04 03:28:41;;;;;;;5.78;5.57;;;;;;;;;;6141979;28;20047;-94
2024/01/04 03:31:43;;;;;;;5.20;5.10;;;;;;;;;;6138658;29;20086;-92
2024/01/04 03:34:45;;;;;;;5.45;5.25;;;;;;;;;;6139116;28;20041;-94
2024/01/04 03:37:47;;;;;;;5.50;5.22;;;;;;;;;;6127915;29;20078;-93
2024/01/04 03:40:49;;;;;;;11.75;5.95;;;;;;;;;;6141599;28;20043;-95
2024/01/04 03:43:51;;;;;;;5.90;5.65;;;;;;;;;;6137326;29;20063;-95
2024/01/04 03:46:53;;;;;;;5.70;5.50;;;;;;;;;;6140216;28;20063;-93
2024/01/04 03:49:55;;;;;;;6.68;6.47;;;;;;;;;;6139625;29;20081;-93
2024/01/04 03:52:57;;;;;;;5.63;5.43;;;;;;;;;;6139097;29;20048;-93
2024/01/04 03:55:58;;;;;;;5.93;5.72;;;;;;;;;;6139805;29;20039;-93
2024/01/04 03:59:00;;;;;;;4.80;4.70;;;;;;;;;;6143120;28;20035;-93
2024/01/04 04:02:02;;;;;;;6.13;5.93;;;;;;;;;;6144012;28;20079;-92
2024/01/04 04:05:04;;;;;;;5.80;5.60;;;;;;;;;;6144596;28;20047;-93
2024/01/04 04:08:06;;;;;;;5.57;5.38;;;;;;;;;;6145328;29;20127;-93
2024/01/04 04:11:17;;;;;;;5.25;5.15;;;;;;;;;;6145778;28;20431;-93
2024/01/04 04:14:19;;;;;;;5.53;5.32;;;;;;;;;;6161382;28;20090;-92
2024/01/04 04:17:24;;;;;;;4.82;4.72;;;;;;;;;;6141139;28;20062;-95
2024/01/04 04:20:26;;;;;;;5.88;5.68;;;;;;;;;;6150634;28;20055;-95
2024/01/04 04:23:28;;;;;;;4.88;4.78;;;;;;;;;;6146454;28;20051;-95
2024/01/04 04:26:31;;;;;;;5.05;4.90;;;;;;;;;;6144161;28;20485;-94
2024/01/04 04:29:33;;;;;;;5.72;5.47;;;;;;;;;;6135231;28;20039;-96
2024/01/04 04:32:35;;;;;;;5.88;5.68;;;;;;;;;;6146853;28;20047;-93
2024/01/04 04:35:37;;;;;;;5.07;4.97;;;;;;;;;;6140098;28;20051;-94
2024/01/04 04:38:52;;;;;;;5.28;4.88;;;;;;;;;;6141983;29;20043;-93
2024/01/04 04:41:53;;;;;;;5.47;5.28;;;;;;;;;;6145537;28;20054;-94
2024/01/04 04:44:55;;;;;;;4.88;4.78;;;;;;;;;;6145693;28;20531;-93
2024/01/04 04:47:57;;;;;;;4.85;4.75;;;;;;;;;;6135947;29;20534;-93
2024/01/04 04:50:59;;;;;;;5.20;5.00;;;;;;;;;;6141167;28;20490;-92
2024/01/04 04:54:03;;;;;;;4.60;4.50;;;;;;;;;;6141220;29;20046;-94
2024/01/04 04:57:05;;;;;;;4.90;4.80;;;;;;;;;;6135805;29;20047;-93
2024/01/04 05:00:07;;;;;;;5.10;5.00;;;;;;;;;;6143599;28;20514;-92
2024/01/04 05:03:09;;;;;;;6.45;6.25;;;;;;;;;;6143407;28;20121;-93
2024/01/04 05:06:11;;;;;;;5.50;5.30;;;;;;;;;;6140508;28;20370;-93
2024/01/04 05:09:15;;;;;;;5.43;5.22;;;;;;;;;;6140625;29;20058;-94
2024/01/04 05:12:17;;;;;;;5.68;5.47;;;;;;;;;;6143851;28;20146;-93
2024/01/04 05:15:18;;;;;;;5.72;5.53;;;;;;;;;;6142476;28;20061;-93
2024/01/04 05:18:21;;;;;;;4.45;4.35;;;;;;;;;;6140528;28;20035;-94
2024/01/04 05:21:23;;;;;;;5.43;5.22;;;;;;;;;;6143481;28;20143;-94
2024/01/04 05:24:25;;;;;;;4.88;4.78;;;;;;;;;;6139750;28;20114;-94
2024/01/04 05:27:27;;;;;;;6.20;6.00;;;;;;;;;;6143677;28;20095;-94
2024/01/04 05:30:29;;;;;;;4.85;4.75;;;;;;;;;;6143894;28;20061;-94
2024/01/04 05:33:30;;;;;;;5.00;4.90;;;;;;;;;;6137676;28;20078;-94
2024/01/04 05:36:32;;;;;;;4.95;4.85;;;;;;;;;;6137368;28;20126;-94
2024/01/04 05:39:34;;;;;;;4.95;4.85;;;;;;;;;;6144049;28;20505;-95
2024/01/04 05:42:39;;;;;;;4.82;4.63;;;;;;;;;;6137836;28;20031;-94
2024/01/04 05:45:41;;;;;;;4.95;4.75;;;;;;;;;;6143101;28;20039;-95
2024/01/04 05:48:43;;;;;;;4.85;4.65;;;;;;;;;;6137677;28;20549;-93
2024/01/04 05:51:45;;;;;;;5.68;5.47;;;;;;;;;;6138144;28;20085;-95
2024/01/04 05:54:47;;;;;;;4.60;4.50;;;;;;;;;;6140501;28;20062;-94
2024/01/04 05:57:48;;;;;;;4.15;4.05;;;;;;;;;;6130696;29;20426;-93
2024/01/04 06:00:50;;;;;;;5.88;5.60;;;;;;;;;;6141361;29;20050;-95
2024/01/04 06:03:52;;;;;;;5.03;4.72;;;;;;;;;;6139972;29;20054;-94
2024/01/04 06:06:54;;;;;;;4.95;4.75;;;;;;;;;;6140219;28;20035;-94
2024/01/04 06:09:56;;;;;;;4.82;4.72;;;;;;;;;;6137550;28;20706;-94
2024/01/04 06:12:57;;;;;;;5.20;5.00;;;;;;;;;;6138768;29;21012;-95
2024/01/04 06:16:03;;;;;;;4.55;4.45;;;;;;;;;;6141789;28;20043;-94
2024/01/04 06:19:05;;;;;;;4.78;4.65;;;;;;;;;;6135991;29;20387;-94
2024/01/04 06:22:07;;;;;;;4.38;4.28;;;;;;;;;;6140708;28;20494;-94
2024/01/04 06:25:10;;;;;;;4.10;4.00;;;;;;;;;;6135786;28;20051;-94
2024/01/04 06:28:12;;;;;;;4.97;4.78;;;;;;;;;;6136647;29;20043;-94
2024/01/04 06:31:14;;;;;;;5.28;5.07;;;;;;;;;;6142088;29;20054;-94
2024/01/04 06:34:16;;;;;;;5.40;5.22;;;;;;;;;;6143361;29;20051;-93
2024/01/04 06:37:18;;;;;;;4.70;4.60;;;;;;;;;;6136640;28;20039;-95
2024/01/04 06:40:20;;;;;;;5.38;5.18;;;;;;;;;;6122874;28;20354;-95
2024/01/04 06:43:22;;;;;;;5.25;5.05;;;;;;;;;;6140112;28;20048;-95
2024/01/04 06:46:24;;;;;;;5.60;4.93;;;;;;;;;;6142168;28;20055;-94
2024/01/04 06:49:26;;;;;;;5.03;4.93;;;;;;;;;;6140232;29;20047;-94
2024/01/04 06:52:28;;;;;;;4.35;4.25;;;;;;;;;;6138189;28;20051;-96
2024/01/04 06:55:30;;;;;;;4.65;4.55;;;;;;;;;;6142171;28;20482;-95
2024/01/04 06:58:32;;;;;;;4.38;4.28;;;;;;;;;;6141984;29;20039;-94
2024/01/04 07:01:34;;;;;;;5.13;4.93;;;;;;;;;;6137110;28;20035;-96
2024/01/04 07:04:36;;;;;;;4.88;4.78;;;;;;;;;;6135481;28;20043;-95
2024/01/04 07:07:38;;;;;;;4.93;4.82;;;;;;;;;;6139539;28;20118;-95
2024/01/04 07:10:40;;;;;;;4.50;4.40;;;;;;;;;;6141193;28;20425;-95
2024/01/04 07:13:42;;;;;;;4.60;4.50;;;;;;;;;;6141311;29;20042;-95
2024/01/04 07:16:45;;;;;;;5.75;5.55;;;;;;;;;;6136511;28;20054;-95
2024/01/04 07:19:47;;;;;;;5.07;4.88;;;;;;;;;;6140019;29;20051;-95
2024/01/04 07:22:52;;;;;;;5.00;4.80;;;;;;;;;;6133635;28;20039;-95
2024/01/04 07:25:55;;;;;;;5.38;5.18;;;;;;;;;;6134821;29;20473;-94
2024/01/04 07:28:57;;;;;;;4.90;4.80;;;;;;;;;;6142573;28;20043;-93
2024/01/04 07:31:58;;;;;;;19.73;5.10;;;;;;;;;;6142348;28;20043;-94
2024/01/04 07:35:01;;;;;;;5.10;4.80;;;;;;;;;;6143197;28;20973;-94
2024/01/04 07:38:16;;;;;;;4.80;4.70;;;;;;;;;;6140627;29;20051;-94
2024/01/04 07:41:18;;;;;;;5.55;5.35;;;;;;;;;;6144170;28;20598;-94
2024/01/04 07:44:21;;;;;;;5.07;4.88;;;;;;;;;;6146020;29;20445;-96
2024/01/04 07:47:22;;;;;;;4.97;4.88;;;;;;;;;;6140414;29;20056;-95
2024/01/04 07:50:25;;;;;;;5.53;5.22;;;;;;;;;;6132905;29;20050;-95
2024/01/04 07:53:27;;;;;;;5.90;5.65;;;;;;;;;;6143478;29;20051;-94
2024/01/04 07:56:29;;;;;;;5.25;5.05;;;;;;;;;;6143828;28;20040;-94
2024/01/04 07:59:30;;;;;;;4.60;4.50;;;;;;;;;;6145577;28;20090;-96
2024/01/04 08:02:32;;;;;;;4.45;4.35;;;;;;;;;;6144628;28;20483;-95
2024/01/04 08:05:35;;;;;;;4.95;4.85;;;;;;;;;;6144694;29;20054;-93
2024/01/04 08:08:36;;;;;;;4.47;4.38;;;;;;;;;;6146506;28;20074;-90
2024/01/04 08:11:39;;;;;;;5.70;5.50;;;;;;;;;;6144031;28;20039;-91
2024/01/04 08:14:40;;;;;;;5.38;5.18;;;;;;;;;;6136827;29;20063;-92
2024/01/04 08:17:42;;;;;;;5.25;5.05;;;;;;;;;;6128015;29;20055;-91
2024/01/04 08:20:45;;;;;;;4.90;4.80;;;;;;;;;;6143929;28;20046;-91
2024/01/04 08:23:50;;;;;;;4.32;4.22;;;;;;;;;;6143421;29;20421;-90
2024/01/04 08:26:51;;;;;;;4.45;4.35;;;;;;;;;;6142501;28;20210;-91
2024/01/04 08:29:54;;;;;;;5.15;4.95;;;;;;;;;;6138231;29;20035;-92
2024/01/04 08:32:55;;;;;;;4.63;4.53;;;;;;;;;;6134702;29;20050;-92
2024/01/04 08:35:57;;;;;;;4.70;4.60;;;;;;;;;;6143734;28;20047;-90
2024/01/04 08:38:59;;;;;;;4.45;4.35;;;;;;;;;;6140518;29;20743;-91
2024/01/04 08:42:01;;;;;;;4.95;4.80;;;;;;;;;;6144263;28;20052;-92
2024/01/04 08:45:07;;;;;;;5.53;5.32;;;;;;;;;;6143920;28;20401;-92
2024/01/04 08:48:09;;;;;;;4.97;4.88;;;;;;;;;;6144411;28;20047;-91
2024/01/04 08:51:11;;;;;;;4.78;4.60;;;;;;;;;;6143864;29;20061;-91
2024/01/04 08:54:13;;;;;;;5.00;4.90;;;;;;;;;;6144545;28;20070;-92
2024/01/04 08:57:14;;;;;;;4.80;4.70;;;;;;;;;;6139853;28;20044;-92
2024/01/04 09:00:16;;;;;;;5.85;5.65;;;;;;;;;;6144634;28;20050;-92
2024/01/04 09:03:18;;;;;;;4.70;4.60;;;;;;;;;;6143006;28;20114;-90
2024/01/04 09:06:21;;;;;;;5.43;5.22;;;;;;;;;;6141951;28;20053;-90
2024/01/04 09:09:23;;;;;;;4.82;4.72;;;;;;;;;;6142364;29;20429;-90
2024/01/04 09:12:27;;;;;;;4.82;4.63;;;;;;;;;;6144853;28;20094;-89
2024/01/04 09:15:29;;;;;;;5.07;4.97;;;;;;;;;;6136351;28;20035;-89
2024/01/04 09:18:33;;;;;;;4.90;4.80;;;;;;;;;;6144812;28;20043;-89
2024/01/04 09:21:35;;;;;;;5.18;5.07;;;;;;;;;;6139881;28;20366;-89
2024/01/04 09:24:36;;;;;;;4.88;4.78;;;;;;;;;;6139426;28;20061;-89
2024/01/04 09:27:38;;;;;;;5.63;5.43;;;;;;;;;;6138978;29;20134;-89
2024/01/04 09:30:40;;;;;;;4.45;4.35;;;;;;;;;;6144779;28;20083;-89
2024/01/04 09:33:41;;;;;;;4.47;4.38;;;;;;;;;;6138308;29;20055;-89
2024/01/04 09:36:43;;;;;;;4.95;4.85;;;;;;;;;;6141197;28;20394;-90
2024/01/04 09:39:45;;;;;;;4.97;4.78;;;;;;;;;;6140341;28;20054;-91
2024/01/04 09:42:48;;;;;;;4.78;4.68;;;;;;;;;;6137554;29;20045;-91
2024/01/04 09:45:50;;;;;;;5.00;4.90;;;;;;;;;;6118225;29;20270;-90
2024/01/04 09:49:01;;;;;;;4.80;4.70;;;;;;;;;;6135413;29;20058;-91
2024/01/04 09:52:04;;;;;;;4.70;4.50;;;;;;;;;;6130753;28;20044;-90
2024/01/04 09:55:09;;;;;;;4.93;4.82;;;;;;;;;;6143472;28;21011;-92
2024/01/04 09:58:11;;;;;;;6.22;6.03;;;;;;;;;;6140305;28;20207;-90
2024/01/04 10:01:14;;;;;;;4.97;4.78;;;;;;;;;;6142660;28;20047;-92
2024/01/04 10:04:16;;;;;;;4.55;4.45;;;;;;;;;;6141099;29;20043;-92
2024/01/04 10:07:22;;;;;;;4.95;4.75;;;;;;;;;;6143356;29;20050;-91
2024/01/04 10:10:28;;;;;;;6.10;5.90;;;;;;;;;;6141940;28;20050;-92
2024/01/04 10:13:30;;;;;;;4.82;4.72;;;;;;;;;;6139368;29;20529;-91
2024/01/04 10:16:33;;;;;;;5.43;5.13;;;;;;;;;;6141834;29;20391;-93
2024/01/04 10:19:35;;;;;;;5.00;4.90;;;;;;;;;;6139806;28;20050;-93
2024/01/04 10:22:37;;;;;;;5.45;5.25;;;;;;;;;;6141999;28;20046;-92
2024/01/04 10:25:39;;;;;;;4.60;4.50;;;;;;;;;;6128207;29;20047;-92
2024/01/04 10:28:41;;;;;;;4.72;4.63;;;;;;;;;;6141946;29;20055;-91
2024/01/04 10:31:43;;;;;;;5.55;5.35;;;;;;;;;;6139702;28;20113;-91
2024/01/04 10:34:45;;;;;;;5.47;5.18;;;;;;;;;;6139204;29;20043;-92
2024/01/04 10:37:56;;;;;;;5.22;5.10;;;;;;;;;;6138104;29;20086;-92
2024/01/04 10:41:01;;;;;;;4.35;4.25;;;;;;;;;;6142474;28;20548;-92
2024/01/04 10:44:05;;;;;;;4.70;4.60;;;;;;;;;;6139898;29;20539;-92
2024/01/04 10:47:09;;;;;;;5.40;5.20;;;;;;;;;;6135565;29;20863;-92
2024/01/04 10:50:12;;;;;;;5.03;4.82;;;;;;;;;;6139678;29;20588;-92
2024/01/04 10:53:14;;;;;;;4.93;4.82;;;;;;;;;;6130049;29;20047;-93
2024/01/04 10:56:16;;;;;;;4.75;4.65;;;;;;;;;;6142442;29;20535;-93
2024/01/04 10:59:19;;;;;;;4.53;4.43;;;;;;;;;;6133626;29;20044;-92
2024/01/04 11:02:21;;;;;;;5.25;5.05;;;;;;;;;;6142165;28;20402;-92
2024/01/04 11:05:24;;;;;;;4.40;4.30;;;;;;;;;;6142483;28;20063;-91
2024/01/04 11:08:27;;;;;;;5.72;5.53;;;;;;;;;;6141071;28;20126;-92
2024/01/04 11:11:30;;;;;;;6.65;6.45;;;;;;;;;;6142515;28;20440;-92
2024/01/04 11:14:32;;;;;;;4.57;4.47;;;;;;;;;;6134342;28;20059;-92
2024/01/04 11:17:41;;;;;;;4.38;4.28;;;;;;;;;;6145828;29;20046;-93
2024/01/04 11:20:55;;;;;;;5.45;5.30;;;;;;;;;;6141907;28;20469;-93
2024/01/04 11:24:03;;;;;;;4.93;4.82;;;;;;;;;;6142307;29;20182;-93
2024/01/04 11:27:09;;;;;;;4.60;4.50;;;;;;;;;;6146492;28;20489;-92
2024/01/04 11:30:11;;;;;;;5.47;5.28;;;;;;;;;;6144651;29;20039;-93
2024/01/04 11:33:13;;;;;;;5.00;4.90;;;;;;;;;;6145929;28;20401;-92
2024/01/04 11:36:16;;;;;;;4.70;4.60;;;;;;;;;;6126462;29;20466;-93
2024/01/04 11:39:30;;;;;;;4.82;4.72;;;;;;;;;;6142535;28;20042;-92
2024/01/04 11:42:32;;;;;;;5.10;4.90;;;;;;;;;;6140290;29;20054;-93
2024/01/04 11:45:34;;;;;;;5.88;5.35;;;;;;;;;;6145745;29;20051;-92
2024/01/04 11:48:46;;;;;;;4.40;4.30;;;;;;;;;;6143998;28;20042;-92
2024/01/04 11:51:49;;;;;;;4.88;4.78;;;;;;;;;;6144263;29;20051;-92
2024/01/04 11:54:52;;;;;;;4.47;4.38;;;;;;;;;;6146019;28;20070;-93
2024/01/04 11:58:12;;;;;;;4.80;4.70;;;;;;;;;;6146270;29;20182;-92
2024/01/04 12:01:21;;;;;;;5.00;4.90;;;;;;;;;;6153125;28;20537;-93
2024/01/04 12:04:23;;;;;;;4.30;4.20;;;;;;;;;;6146008;28;20042;-92
2024/01/04 12:07:27;;;;;;;4.57;4.47;;;;;;;;;;6143832;28;20058;-91
2024/01/04 12:10:28;;;;;;;4.97;4.88;;;;;;;;;;6141260;29;20501;-93
2024/01/04 12:13:31;;;;;;;5.25;5.05;;;;;;;;;;6145643;28;20083;-92
2024/01/04 12:16:34;;;;;;;4.93;4.82;;;;;;;;;;6143513;28;20186;-91
2024/01/04 12:19:35;;;;;;;5.13;4.93;;;;;;;;;;6140507;28;20097;-92
2024/01/04 12:22:38;;;;;;;5.43;5.22;;;;;;;;;;6141251;29;20135;-92
2024/01/04 12:25:42;;;;;;;4.35;4.25;;;;;;;;;;6133548;29;20055;-93
2024/01/04 12:28:44;;;;;;;4.85;4.75;;;;;;;;;;6143638;29;20126;-92
2024/01/04 12:31:46;;;;;;;4.88;4.68;;;;;;;;;;6139414;29;20261;-91
2024/01/04 12:34:49;;;;;;;4.75;4.55;;;;;;;;;;6127584;29;20043;-93
2024/01/04 12:38:07;;;;;;;4.85;4.75;;;;;;;;;;6139073;29;20039;-92
2024/01/04 12:41:09;;;;;;;5.28;4.97;;;;;;;;;;6132988;28;20422;-93
2024/01/04 12:44:11;;;;;;;4.25;4.15;;;;;;;;;;6137393;29;20110;-92
2024/01/04 12:47:13;;;;;;;5.75;5.55;;;;;;;;;;6132495;29;20070;-93
2024/01/04 12:50:21;;;;;;;4.60;4.50;;;;;;;;;;6135901;29;20098;-93
2024/01/04 12:53:23;;;;;;;5.35;5.15;;;;;;;;;;6131803;29;20412;-93
2024/01/04 12:56:25;;;;;;;4.68;4.57;;;;;;;;;;6124218;29;20088;-93
2024/01/04 12:59:26;;;;;;;5.07;4.88;;;;;;;;;;6139064;29;20173;-95
2024/01/04 13:02:28;;;;;;;5.47;5.28;;;;;;;;;;6142807;28;20370;-93
2024/01/04 13:05:30;;;;;;;4.63;4.53;;;;;;;;;;6132550;28;20242;-93
2024/01/04 13:08:32;;;;;;;5.63;5.32;;;;;;;;;;6137381;29;20154;-93
2024/01/04 13:11:34;;;;;;;4.50;4.40;;;;;;;;;;6139125;28;20556;-95
2024/01/04 13:14:36;;;;;;;5.80;5.60;;;;;;;;;;6123488;29;20050;-94
2024/01/04 13:17:38;;;;;;;5.28;5.07;;;;;;;;;;6132017;28;20173;-94
2024/01/04 13:20:41;;;;;;;5.03;4.85;;;;;;;;;;6136559;28;20040;-93
2024/01/04 13:23:45;;;;;;;5.32;5.07;;;;;;;;;;6136119;29;20099;-94
2024/01/04 13:26:47;;;;;;;4.72;4.63;;;;;;;;;;6143405;28;20054;-94
2024/01/04 13:29:49;;;;;;;4.35;4.25;;;;;;;;;;6138818;29;20047;-93
2024/01/04 13:32:51;;;;;;;4.78;4.68;;;;;;;;;;6132318;29;20039;-94
2024/01/04 13:35:55;;;;;;;4.93;4.72;;;;;;;;;;6138143;28;20083;-94
2024/01/04 13:38:57;;;;;;;4.90;4.70;;;;;;;;;;6122876;29;20046;-94
2024/01/04 13:42:00;;;;;;;4.35;4.25;;;;;;;;;;6141667;28;20563;-94
2024/01/04 13:45:02;;;;;;;5.07;4.95;;;;;;;;;;6128148;28;20035;-95
2024/01/04 13:48:04;;;;;;;4.55;4.45;;;;;;;;;;6118280;29;20052;-95
2024/01/04 13:51:07;;;;;;;4.85;4.65;;;;;;;;;;6133312;28;20062;-94
2024/01/04 13:54:11;;;;;;;4.75;4.65;;;;;;;;;;6135543;28;20058;-94
2024/01/04 13:57:14;;;;;;;4.72;4.57;;;;;;;;;;6122729;29;20303;-94
2024/01/04 14:00:16;;;;;;;4.90;4.80;;;;;;;;;;6138671;29;20051;-94
2024/01/04 14:03:18;;;;;;;7.30;7.00;;;;;;;;;;6111424;29;20047;-93
2024/01/04 14:06:21;;;;;;;5.65;5.25;;;;;;;;;;6139515;29;20051;-94
2024/01/04 14:09:23;;;;;;;5.38;5.18;;;;;;;;;;6138898;29;20145;-94
2024/01/04 14:12:25;;;;;;;5.82;5.63;;;;;;;;;;6140949;28;20047;-93
2024/01/04 14:15:27;;;;;;;6.00;5.70;;;;;;;;;;6139937;29;20058;-93
2024/01/04 14:18:35;;;;;;;6.28;6.07;;;;;;;;;;6135659;29;20051;-94
2024/01/04 14:21:37;;;;;;;4.85;4.75;;;;;;;;;;6139579;28;20490;-93
2024/01/04 14:24:39;;;;;;;4.90;4.70;;;;;;;;;;6139241;28;20057;-93
2024/01/04 14:27:43;;;;;;;8.55;6.30;;;;;;;;;;6136386;28;20058;-92
2024/01/04 14:30:45;;;;;;;5.72;5.53;;;;;;;;;;6142428;28;20117;-94
2024/01/04 14:33:47;;;;;;;5.45;5.25;;;;;;;;;;6128437;28;20414;-93
2024/01/04 14:36:49;;;;;;;4.93;4.82;;;;;;;;;;6136383;28;20039;-93
2024/01/04 14:39:51;;;;;;;5.28;5.07;;;;;;;;;;6141610;28;20047;-93
2024/01/04 14:42:53;;;;;;;4.95;4.75;;;;;;;;;;6143788;28;20043;-94
2024/01/04 14:45:55;;;;;;;6.10;5.85;;;;;;;;;;6147801;29;20047;-94
2024/01/04 14:48:57;;;;;;;4.82;4.65;;;;;;;;;;6114782;29;20055;-92
2024/01/04 14:51:59;;;;;;;5.25;5.05;;;;;;;;;;6146573;28;20047;-93
2024/01/04 14:55:02;;;;;;;5.63;5.43;;;;;;;;;;6144324;28;20047;-94
2024/01/04 14:58:04;;;;;;;5.40;5.13;;;;;;;;;;6158344;28;20407;-94
2024/01/04 15:01:06;;;;;;;4.57;4.47;;;;;;;;;;6137069;28;20039;-93
2024/01/04 15:04:08;;;;;;;5.53;5.32;;;;;;;;;;6141087;29;20046;-94
2024/01/04 15:07:10;;;;;;;4.75;4.65;;;;;;;;;;6147683;28;20046;-93
2024/01/04 15:10:12;;;;;;;5.20;5.00;;;;;;;;;;6142102;28;20454;-94
2024/01/04 15:13:14;;;;;;;6.50;6.15;;;;;;;;;;6143924;29;20043;-94
2024/01/04 15:16:16;;;;;;;6.85;5.50;;;;;;;;;;6148866;28;20105;-94
2024/01/04 15:19:18;;;;;;;4.93;4.82;;;;;;;;;;6145866;29;20050;-93
2024/01/04 15:22:22;;;;;;;5.80;5.60;;;;;;;;;;6147499;28;20042;-94
2024/01/04 15:25:26;;;;;;;5.60;5.40;;;;;;;;;;6146398;29;20179;-94
2024/01/04 15:28:28;;;;;;;5.88;5.68;;;;;;;;;;6143506;29;20043;-94
2024/01/04 15:31:30;;;;;;;5.60;5.40;;;;;;;;;;6149178;28;20472;-94
2024/01/04 15:34:32;;;;;;;5.20;5.00;;;;;;;;;;6139934;29;20055;-93
2024/01/04 15:37:34;;;;;;;5.47;5.28;;;;;;;;;;6141370;28;20063;-94
2024/01/04 15:40:36;;;;;;;4.80;4.70;;;;;;;;;;6141872;28;20059;-93
2024/01/04 15:43:38;;;;;;;5.35;5.15;;;;;;;;;;6144078;28;20469;-94
2024/01/04 15:46:39;;;;;;;5.88;5.57;;;;;;;;;;6144115;28;20075;-93
2024/01/04 15:49:42;;;;;;;5.13;4.90;;;;;;;;;;6142680;29;20066;-94
2024/01/04 15:52:45;;;;;;;5.35;5.15;;;;;;;;;;6148147;28;20406;-94
2024/01/04 15:55:47;;;;;;;4.55;4.45;;;;;;;;;;6141638;28;20047;-93
2024/01/04 15:58:49;;;;;;;5.72;5.53;;;;;;;;;;6140292;29;20044;-94
2024/01/04 16:01:58;;;;;;;5.70;5.50;;;;;;;;;;6137727;28;20494;-93
2024/01/04 16:05:01;;;;;;;5.72;5.50;;;;;;;;;;6142928;28;20269;-93
2024/01/04 16:08:03;;;;;;;5.15;5.00;;;;;;;;;;6143459;29;20183;-93
2024/01/04 16:11:05;;;;;;;5.53;5.28;;;;;;;;;;6145017;28;20050;-94
2024/01/04 16:14:08;;;;;;;4.78;4.68;;;;;;;;;;6144073;28;20406;-93
2024/01/04 16:17:10;;;;;;;5.25;4.85;;;;;;;;;;6143292;29;20039;-94
2024/01/04 16:20:12;;;;;;;5.20;5.00;;;;;;;;;;6138159;28;20040;-93
2024/01/04 16:23:31;;;;;;;5.80;5.60;;;;;;;;;;6137091;29;20047;-93
2024/01/04 16:26:33;;;;;;;5.50;5.15;;;;;;;;;;6142110;28;20050;-94
2024/01/04 16:29:35;;;;;;;5.32;5.13;;;;;;;;;;6140997;28;20050;-93
2024/01/04 16:32:37;;;;;;;5.18;5.03;;;;;;;;;;6144560;28;20047;-94
2024/01/04 16:35:40;;;;;;;5.47;5.28;;;;;;;;;;6135494;29;20051;-93
2024/01/04 16:38:41;;;;;;;5.50;5.30;;;;;;;;;;6137493;29;20110;-94
2024/01/04 16:41:45;;;;;;;24.35;22.17;;;;;;;;;;6131675;28;20268;-94
2024/01/04 16:44:47;;;;;;;6.63;6.18;;;;;;;;;;6139750;28;20035;-93
2024/01/04 16:47:49;;;;;;;5.32;5.13;;;;;;;;;;6138986;29;20155;-93
2024/01/04 16:50:51;;;;;;;6.32;5.93;;;;;;;;;;6136784;29;20051;-93
2024/01/04 16:53:53;;;;;;;5.93;5.53;;;;;;;;;;6140716;28;20474;-94
2024/01/04 16:56:57;;;;;;;6.05;5.85;;;;;;;;;;6139410;28;20142;-93
2024/01/04 17:00:00;;;;;;;5.50;5.30;;;;;;;;;;6139809;29;20044;-93
2024/01/04 17:03:02;;;;;;;5.50;5.30;;;;;;;;;;6134823;29;20043;-93
2024/01/04 17:06:05;;;;;;;5.25;5.05;;;;;;;;;;6136674;28;20047;-94
2024/01/04 17:09:07;;;;;;;5.75;5.55;;;;;;;;;;6135248;29;20051;-93
2024/01/04 17:12:10;;;;;;;6.97;6.43;;;;;;;;;;6138991;29;20043;-93
2024/01/04 17:15:12;;;;;;;5.57;5.38;;;;;;;;;;6130986;29;20078;-93
2024/01/04 17:18:14;;;;;;;5.85;5.65;;;;;;;;;;6133702;29;20043;-93
2024/01/04 17:21:16;;;;;;;5.03;4.85;;;;;;;;;;6137065;29;20121;-93
2024/01/04 17:24:19;;;;;;;5.85;5.65;;;;;;;;;;6139423;29;20511;-93
2024/01/04 17:27:21;;;;;;;4.78;4.65;;;;;;;;;;6140406;28;20047;-93
2024/01/04 17:30:23;;;;;;;5.43;5.22;;;;;;;;;;6140400;28;20051;-94
2024/01/04 17:33:25;;;;;;;6.13;5.93;;;;;;;;;;6132555;29;20059;-94
2024/01/04 17:36:27;;;;;;;4.95;4.75;;;;;;;;;;6135205;28;20051;-93
2024/01/04 17:39:42;;;;;;;5.57;5.30;;;;;;;;;;6136712;29;20733;-93
2024/01/04 17:42:44;;;;;;;5.28;5.07;;;;;;;;;;6136168;29;20053;-94
2024/01/04 17:45:46;;;;;;;5.75;5.55;;;;;;;;;;6137656;28;20421;-93
2024/01/04 17:48:49;;;;;;;4.55;4.45;;;;;;;;;;6132153;29;20039;-93
2024/01/04 17:51:53;;;;;;;6.00;5.80;;;;;;;;;;6129794;29;20039;-93
2024/01/04 17:55:00;;;;;;;5.65;5.45;;;;;;;;;;6134042;28;20175;-93
2024/01/04 17:58:02;;;;;;;7.10;6.65;;;;;;;;;;6140043;28;20054;-93
2024/01/04 18:01:04;;;;;;;4.97;4.88;;;;;;;;;;6138789;28;20311;-94
2024/01/04 18:04:06;;;;;;;5.20;5.00;;;;;;;;;;6132375;29;20154;-94
2024/01/04 18:07:09;;;;;;;5.70;5.50;;;;;;;;;;6135161;28;20036;-93
2024/01/04 18:10:11;;;;;;;8.80;7.05;;;;;;;;;;6136709;28;20039;-93
2024/01/04 18:13:13;;;;;;;5.15;5.00;;;;;;;;;;6138111;29;20035;-93
2024/01/04 18:16:14;;;;;;;6.03;5.82;;;;;;;;;;6139454;28;20038;-94